sensor_id;sensor_type;location;lat;lon;timestamp;temperature;humidity
55083;DHT22;40978;52.850;6.506;2022-07-29T00:02:14;15.20;99.90
55083;DHT22;40978;52.850;6.506;2022-07-29T00:04:40;15.30;99.90
55083;DHT22;40978;52.850;6.506;2022-07-29T00:07:06;15.20;99.90
55083;DHT22;40978;52.850;6.506;2022-07-29T00:09:32;15.20;99.90
55083;DHT22;40978;52.850;6.506;2022-07-29T00:11:59;15.20;99.90
55083;DHT22;40978;52.850;6.506;2022-07-29T00:14:26;15.20;99.90
55083;DHT22;40978;52.850;6.506;2022-07-29T00:16:52;15.20;99.90
55083;DHT22;40978;52.850;6.506;2022-07-29T00:19:18;15.20;99.90
55083;DHT22;40978;52.850;6.506;2022-07-29T00:21:43;15.20;99.90
55083;DHT22;40978;52.850;6.506;2022-07-29T00:24:09;15.10;99.90
55083;DHT22;40978;52.850;6.506;2022-07-29T00:26:35;15.20;99.90
55083;DHT22;40978;52.850;6.506;2022-07-29T00:29:02;15.10;99.90
55083;DHT22;40978;52.850;6.506;2022-07-29T00:31:28;15.10;99.90
55083;DHT22;40978;52.850;6.506;2022-07-29T00:33:54;15.10;99.90
55083;DHT22;40978;52.850;6.506;2022-07-29T00:36:20;15.10;99.90
55083;DHT22;40978;52.850;6.506;2022-07-29T00:38:49;15.10;99.90
55083;DHT22;40978;52.850;6.506;2022-07-29T00:41:16;15.10;99.90
55083;DHT22;40978;52.850;6.506;2022-07-29T00:43:42;15.10;99.90
55083;DHT22;40978;52.850;6.506;2022-07-29T00:46:08;15.00;99.90
55083;DHT22;40978;52.850;6.506;2022-07-29T00:48:34;15.10;99.90
55083;DHT22;40978;52.850;6.506;2022-07-29T00:51:02;15.10;99.90
55083;DHT22;40978;52.850;6.506;2022-07-29T00:53:28;15.10;99.90
55083;DHT22;40978;52.850;6.506;2022-07-29T00:55:55;15.10;99.90
55083;DHT22;40978;52.850;6.506;2022-07-29T00:58:21;15.00;99.90
55083;DHT22;40978;52.850;6.506;2022-07-29T01:00:47;15.00;99.90
55083;DHT22;40978;52.850;6.506;2022-07-29T01:03:13;15.00;99.90
55083;DHT22;40978;52.850;6.506;2022-07-29T01:05:39;15.00;99.90
55083;DHT22;40978;52.850;6.506;2022-07-29T01:08:06;15.00;99.90
55083;DHT22;40978;52.850;6.506;2022-07-29T01:10:32;15.00;99.90
55083;DHT22;40978;52.850;6.506;2022-07-29T01:12:59;15.00;99.90
55083;DHT22;40978;52.850;6.506;2022-07-29T01:15:27;15.00;99.90
55083;DHT22;40978;52.850;6.506;2022-07-29T01:17:56;15.00;99.90
55083;DHT22;40978;52.850;6.506;2022-07-29T01:26:33;15.00;99.90
55083;DHT22;40978;52.850;6.506;2022-07-29T01:32:31;15.00;99.90
55083;DHT22;40978;52.850;6.506;2022-07-29T01:35:36;15.00;99.90
55083;DHT22;40978;52.850;6.506;2022-07-29T01:37:44;15.10;99.90
55083;DHT22;40978;52.850;6.506;2022-07-29T01:40:40;15.10;99.90
55083;DHT22;40978;52.850;6.506;2022-07-29T01:43:21;15.10;99.90
55083;DHT22;40978;52.850;6.506;2022-07-29T01:45:55;15.10;99.90
55083;DHT22;40978;52.850;6.506;2022-07-29T01:48:27;15.10;99.90
55083;DHT22;40978;52.850;6.506;2022-07-29T01:51:02;15.10;99.90
55083;DHT22;40978;52.850;6.506;2022-07-29T01:53:37;15.00;99.90
55083;DHT22;40978;52.850;6.506;2022-07-29T01:56:04;15.10;99.90
55083;DHT22;40978;52.850;6.506;2022-07-29T01:58:32;15.00;99.90
55083;DHT22;40978;52.850;6.506;2022-07-29T02:01:02;15.00;99.90
55083;DHT22;40978;52.850;6.506;2022-07-29T02:03:30;15.00;99.90
55083;DHT22;40978;52.850;6.506;2022-07-29T02:05:58;15.00;99.90
55083;DHT22;40978;52.850;6.506;2022-07-29T02:08:26;15.00;99.90
55083;DHT22;40978;52.850;6.506;2022-07-29T02:10:52;15.00;99.90
55083;DHT22;40978;52.850;6.506;2022-07-29T02:13:20;15.00;99.90
55083;DHT22;40978;52.850;6.506;2022-07-29T02:15:50;14.90;99.90
55083;DHT22;40978;52.850;6.506;2022-07-29T02:18:17;14.90;99.90
55083;DHT22;40978;52.850;6.506;2022-07-29T02:20:47;14.90;99.90
55083;DHT22;40978;52.850;6.506;2022-07-29T02:23:22;14.80;99.90
55083;DHT22;40978;52.850;6.506;2022-07-29T02:25:50;14.90;99.90
55083;DHT22;40978;52.850;6.506;2022-07-29T02:28:17;14.80;99.90
55083;DHT22;40978;52.850;6.506;2022-07-29T02:30:45;14.80;99.90
55083;DHT22;40978;52.850;6.506;2022-07-29T02:33:14;14.80;99.90
55083;DHT22;40978;52.850;6.506;2022-07-29T02:35:41;14.80;99.90
55083;DHT22;40978;52.850;6.506;2022-07-29T02:38:13;14.80;99.90
55083;DHT22;40978;52.850;6.506;2022-07-29T02:40:59;14.80;99.90
55083;DHT22;40978;52.850;6.506;2022-07-29T02:43:26;14.80;99.90
55083;DHT22;40978;52.850;6.506;2022-07-29T02:45:54;14.80;99.90
55083;DHT22;40978;52.850;6.506;2022-07-29T02:48:27;14.80;99.90
55083;DHT22;40978;52.850;6.506;2022-07-29T02:51:05;14.80;99.90
55083;DHT22;40978;52.850;6.506;2022-07-29T02:53:33;14.80;99.90
55083;DHT22;40978;52.850;6.506;2022-07-29T02:56:06;14.80;99.90
55083;DHT22;40978;52.850;6.506;2022-07-29T02:58:49;14.80;99.90
55083;DHT22;40978;52.850;6.506;2022-07-29T03:01:25;14.80;99.90
55083;DHT22;40978;52.850;6.506;2022-07-29T03:03:54;14.80;99.90
55083;DHT22;40978;52.850;6.506;2022-07-29T03:06:22;14.70;99.90
55083;DHT22;40978;52.850;6.506;2022-07-29T03:08:49;14.80;99.90
55083;DHT22;40978;52.850;6.506;2022-07-29T03:11:16;14.70;99.90
55083;DHT22;40978;52.850;6.506;2022-07-29T03:13:43;14.70;99.90
55083;DHT22;40978;52.850;6.506;2022-07-29T03:16:09;14.70;99.90
55083;DHT22;40978;52.850;6.506;2022-07-29T03:18:36;14.70;99.90
55083;DHT22;40978;52.850;6.506;2022-07-29T03:21:03;14.70;99.90
55083;DHT22;40978;52.850;6.506;2022-07-29T03:23:29;14.70;99.90
55083;DHT22;40978;52.850;6.506;2022-07-29T03:25:55;14.70;99.90
55083;DHT22;40978;52.850;6.506;2022-07-29T03:28:21;14.70;99.90
55083;DHT22;40978;52.850;6.506;2022-07-29T03:30:48;14.60;99.90
55083;DHT22;40978;52.850;6.506;2022-07-29T03:33:14;14.60;99.90
55083;DHT22;40978;52.850;6.506;2022-07-29T03:35:40;14.60;99.90
55083;DHT22;40978;52.850;6.506;2022-07-29T03:38:06;14.60;99.90
55083;DHT22;40978;52.850;6.506;2022-07-29T03:40:35;14.60;99.90
55083;DHT22;40978;52.850;6.506;2022-07-29T03:43:03;14.60;99.90
55083;DHT22;40978;52.850;6.506;2022-07-29T03:45:32;14.50;99.90
55083;DHT22;40978;52.850;6.506;2022-07-29T03:48:09;14.50;99.90
55083;DHT22;40978;52.850;6.506;2022-07-29T03:50:35;14.50;99.90
55083;DHT22;40978;52.850;6.506;2022-07-29T03:53:02;14.50;99.90
55083;DHT22;40978;52.850;6.506;2022-07-29T03:55:29;14.50;99.90
55083;DHT22;40978;52.850;6.506;2022-07-29T03:57:57;14.50;99.90
55083;DHT22;40978;52.850;6.506;2022-07-29T04:00:25;14.50;99.90
55083;DHT22;40978;52.850;6.506;2022-07-29T04:02:52;14.50;99.90
55083;DHT22;40978;52.850;6.506;2022-07-29T04:05:18;14.50;99.90
55083;DHT22;40978;52.850;6.506;2022-07-29T04:07:45;14.50;99.90
55083;DHT22;40978;52.850;6.506;2022-07-29T04:10:11;14.50;99.90
55083;DHT22;40978;52.850;6.506;2022-07-29T04:12:36;14.50;99.90
55083;DHT22;40978;52.850;6.506;2022-07-29T04:15:03;14.50;99.90
55083;DHT22;40978;52.850;6.506;2022-07-29T04:17:29;14.50;99.90
55083;DHT22;40978;52.850;6.506;2022-07-29T04:19:55;14.50;99.90
55083;DHT22;40978;52.850;6.506;2022-07-29T04:22:21;14.50;99.90
55083;DHT22;40978;52.850;6.506;2022-07-29T04:24:46;14.50;99.90
55083;DHT22;40978;52.850;6.506;2022-07-29T04:27:12;14.40;99.90
55083;DHT22;40978;52.850;6.506;2022-07-29T04:29:38;14.50;99.90
55083;DHT22;40978;52.850;6.506;2022-07-29T04:32:03;14.50;99.90
55083;DHT22;40978;52.850;6.506;2022-07-29T04:34:29;14.40;99.90
55083;DHT22;40978;52.850;6.506;2022-07-29T04:36:55;14.50;99.90
55083;DHT22;40978;52.850;6.506;2022-07-29T04:39:21;14.50;99.90
55083;DHT22;40978;52.850;6.506;2022-07-29T04:41:46;14.40;99.90
55083;DHT22;40978;52.850;6.506;2022-07-29T04:44:12;14.50;99.90
55083;DHT22;40978;52.850;6.506;2022-07-29T04:46:38;14.50;99.90
55083;DHT22;40978;52.850;6.506;2022-07-29T04:49:04;14.50;99.90
55083;DHT22;40978;52.850;6.506;2022-07-29T04:51:30;14.50;99.90
55083;DHT22;40978;52.850;6.506;2022-07-29T04:53:56;14.50;99.90
55083;DHT22;40978;52.850;6.506;2022-07-29T04:56:22;14.50;99.90
55083;DHT22;40978;52.850;6.506;2022-07-29T04:58:48;14.50;99.90
55083;DHT22;40978;52.850;6.506;2022-07-29T05:01:14;14.50;99.90
55083;DHT22;40978;52.850;6.506;2022-07-29T05:03:40;14.50;99.90
55083;DHT22;40978;52.850;6.506;2022-07-29T05:06:06;14.50;99.90
55083;DHT22;40978;52.850;6.506;2022-07-29T05:08:32;14.40;99.90
55083;DHT22;40978;52.850;6.506;2022-07-29T05:10:57;14.50;99.90
55083;DHT22;40978;52.850;6.506;2022-07-29T05:13:23;14.50;99.90
55083;DHT22;40978;52.850;6.506;2022-07-29T05:15:49;14.50;99.90
55083;DHT22;40978;52.850;6.506;2022-07-29T05:18:15;14.50;99.90
55083;DHT22;40978;52.850;6.506;2022-07-29T05:20:41;14.40;99.90
55083;DHT22;40978;52.850;6.506;2022-07-29T05:23:06;14.50;99.90
55083;DHT22;40978;52.850;6.506;2022-07-29T05:25:32;14.40;99.90
55083;DHT22;40978;52.850;6.506;2022-07-29T05:27:58;14.50;99.90
55083;DHT22;40978;52.850;6.506;2022-07-29T05:30:24;14.50;99.90
55083;DHT22;40978;52.850;6.506;2022-07-29T05:32:49;14.50;99.90
55083;DHT22;40978;52.850;6.506;2022-07-29T05:35:15;14.50;99.90
55083;DHT22;40978;52.850;6.506;2022-07-29T05:37:41;14.50;99.90
55083;DHT22;40978;52.850;6.506;2022-07-29T05:40:08;14.60;99.90
55083;DHT22;40978;52.850;6.506;2022-07-29T05:42:34;14.60;99.90
55083;DHT22;40978;52.850;6.506;2022-07-29T05:45:00;14.70;99.90
55083;DHT22;40978;52.850;6.506;2022-07-29T05:47:26;14.70;99.90
55083;DHT22;40978;52.850;6.506;2022-07-29T05:49:52;14.70;99.90
55083;DHT22;40978;52.850;6.506;2022-07-29T05:52:19;14.70;99.90
55083;DHT22;40978;52.850;6.506;2022-07-29T05:54:45;14.80;99.90
55083;DHT22;40978;52.850;6.506;2022-07-29T05:57:22;14.80;99.90
55083;DHT22;40978;52.850;6.506;2022-07-29T05:59:48;14.90;99.90
55083;DHT22;40978;52.850;6.506;2022-07-29T06:02:14;15.00;99.90
55083;DHT22;40978;52.850;6.506;2022-07-29T06:04:40;15.10;99.90
55083;DHT22;40978;52.850;6.506;2022-07-29T06:07:06;15.20;99.90
55083;DHT22;40978;52.850;6.506;2022-07-29T06:09:33;15.30;99.90
55083;DHT22;40978;52.850;6.506;2022-07-29T06:11:59;15.30;99.90
55083;DHT22;40978;52.850;6.506;2022-07-29T06:14:25;15.30;99.90
55083;DHT22;40978;52.850;6.506;2022-07-29T06:16:52;15.40;99.90
55083;DHT22;40978;52.850;6.506;2022-07-29T06:19:18;15.40;99.90
55083;DHT22;40978;52.850;6.506;2022-07-29T06:21:45;15.50;99.90
55083;DHT22;40978;52.850;6.506;2022-07-29T06:24:12;15.60;99.90
55083;DHT22;40978;52.850;6.506;2022-07-29T06:26:39;15.70;99.90
55083;DHT22;40978;52.850;6.506;2022-07-29T06:29:05;15.70;99.90
55083;DHT22;40978;52.850;6.506;2022-07-29T06:31:31;15.80;99.90
55083;DHT22;40978;52.850;6.506;2022-07-29T06:33:57;15.90;99.90
55083;DHT22;40978;52.850;6.506;2022-07-29T06:36:22;16.00;99.90
55083;DHT22;40978;52.850;6.506;2022-07-29T06:38:48;16.00;99.90
55083;DHT22;40978;52.850;6.506;2022-07-29T06:41:13;16.00;99.90
55083;DHT22;40978;52.850;6.506;2022-07-29T06:43:42;16.10;99.90
55083;DHT22;40978;52.850;6.506;2022-07-29T06:46:11;16.10;99.90
55083;DHT22;40978;52.850;6.506;2022-07-29T06:48:38;16.10;99.90
55083;DHT22;40978;52.850;6.506;2022-07-29T06:51:04;16.10;99.90
55083;DHT22;40978;52.850;6.506;2022-07-29T06:53:31;16.00;99.90
55083;DHT22;40978;52.850;6.506;2022-07-29T06:55:58;15.90;99.90
55083;DHT22;40978;52.850;6.506;2022-07-29T06:58:26;15.90;99.90
55083;DHT22;40978;52.850;6.506;2022-07-29T07:00:51;15.80;99.90
55083;DHT22;40978;52.850;6.506;2022-07-29T07:03:18;15.80;99.90
55083;DHT22;40978;52.850;6.506;2022-07-29T07:05:45;15.90;99.90
55083;DHT22;40978;52.850;6.506;2022-07-29T07:08:11;15.90;99.90
55083;DHT22;40978;52.850;6.506;2022-07-29T07:10:37;15.90;99.90
55083;DHT22;40978;52.850;6.506;2022-07-29T07:13:04;15.90;99.90
55083;DHT22;40978;52.850;6.506;2022-07-29T07:15:30;15.80;99.90
55083;DHT22;40978;52.850;6.506;2022-07-29T07:17:56;15.80;99.90
55083;DHT22;40978;52.850;6.506;2022-07-29T07:20:23;15.80;99.90
55083;DHT22;40978;52.850;6.506;2022-07-29T07:22:49;15.90;99.90
55083;DHT22;40978;52.850;6.506;2022-07-29T07:25:15;15.90;99.90
55083;DHT22;40978;52.850;6.506;2022-07-29T07:27:43;15.90;99.90
55083;DHT22;40978;52.850;6.506;2022-07-29T07:30:09;15.90;99.90
55083;DHT22;40978;52.850;6.506;2022-07-29T07:32:35;16.00;99.90
55083;DHT22;40978;52.850;6.506;2022-07-29T07:35:02;16.10;99.90
55083;DHT22;40978;52.850;6.506;2022-07-29T07:37:28;16.10;99.90
55083;DHT22;40978;52.850;6.506;2022-07-29T07:39:54;16.20;99.90
55083;DHT22;40978;52.850;6.506;2022-07-29T07:42:20;16.30;99.90
55083;DHT22;40978;52.850;6.506;2022-07-29T07:44:46;16.40;99.90
55083;DHT22;40978;52.850;6.506;2022-07-29T07:47:14;16.40;99.90
55083;DHT22;40978;52.850;6.506;2022-07-29T07:49:40;16.40;99.90
55083;DHT22;40978;52.850;6.506;2022-07-29T07:52:06;16.40;99.90
55083;DHT22;40978;52.850;6.506;2022-07-29T07:54:32;16.50;99.90
55083;DHT22;40978;52.850;6.506;2022-07-29T07:56:57;16.50;99.90
55083;DHT22;40978;52.850;6.506;2022-07-29T07:59:23;16.60;99.90
55083;DHT22;40978;52.850;6.506;2022-07-29T08:01:49;16.70;99.90
55083;DHT22;40978;52.850;6.506;2022-07-29T08:04:15;16.70;99.90
55083;DHT22;40978;52.850;6.506;2022-07-29T08:06:41;16.80;99.90
55083;DHT22;40978;52.850;6.506;2022-07-29T08:09:07;16.90;99.90
55083;DHT22;40978;52.850;6.506;2022-07-29T08:11:33;16.90;99.90
55083;DHT22;40978;52.850;6.506;2022-07-29T08:13:59;17.00;99.90
55083;DHT22;40978;52.850;6.506;2022-07-29T08:16:27;17.10;99.90
55083;DHT22;40978;52.850;6.506;2022-07-29T08:18:53;17.30;99.90
55083;DHT22;40978;52.850;6.506;2022-07-29T08:21:22;17.60;99.90
55083;DHT22;40978;52.850;6.506;2022-07-29T08:23:48;17.80;99.90
55083;DHT22;40978;52.850;6.506;2022-07-29T08:26:16;17.80;99.90
55083;DHT22;40978;52.850;6.506;2022-07-29T08:28:43;17.80;99.90
55083;DHT22;40978;52.850;6.506;2022-07-29T08:31:16;17.90;99.90
55083;DHT22;40978;52.850;6.506;2022-07-29T08:33:42;17.90;99.90
55083;DHT22;40978;52.850;6.506;2022-07-29T08:36:08;17.90;99.90
55083;DHT22;40978;52.850;6.506;2022-07-29T08:38:34;17.90;99.90
55083;DHT22;40978;52.850;6.506;2022-07-29T08:41:01;17.80;99.90
55083;DHT22;40978;52.850;6.506;2022-07-29T08:43:30;17.90;99.90
55083;DHT22;40978;52.850;6.506;2022-07-29T08:45:55;17.80;99.90
55083;DHT22;40978;52.850;6.506;2022-07-29T08:48:22;17.80;99.90
55083;DHT22;40978;52.850;6.506;2022-07-29T08:50:52;17.90;99.90
55083;DHT22;40978;52.850;6.506;2022-07-29T08:53:18;17.80;99.90
55083;DHT22;40978;52.850;6.506;2022-07-29T08:55:47;17.80;99.90
55083;DHT22;40978;52.850;6.506;2022-07-29T08:58:13;17.90;99.90
55083;DHT22;40978;52.850;6.506;2022-07-29T09:01:00;17.90;99.90
55083;DHT22;40978;52.850;6.506;2022-07-29T09:03:33;18.00;99.90
55083;DHT22;40978;52.850;6.506;2022-07-29T09:06:00;18.00;99.90
55083;DHT22;40978;52.850;6.506;2022-07-29T09:08:27;18.00;99.90
55083;DHT22;40978;52.850;6.506;2022-07-29T09:10:54;17.90;99.90
55083;DHT22;40978;52.850;6.506;2022-07-29T09:13:22;17.90;99.90
55083;DHT22;40978;52.850;6.506;2022-07-29T09:15:47;17.90;99.90
55083;DHT22;40978;52.850;6.506;2022-07-29T09:18:35;17.90;99.90
55083;DHT22;40978;52.850;6.506;2022-07-29T09:21:02;17.90;99.90
55083;DHT22;40978;52.850;6.506;2022-07-29T09:24:01;17.80;99.90
55083;DHT22;40978;52.850;6.506;2022-07-29T09:26:31;17.80;99.90
55083;DHT22;40978;52.850;6.506;2022-07-29T09:28:58;17.70;99.90
55083;DHT22;40978;52.850;6.506;2022-07-29T09:31:38;17.70;99.90
55083;DHT22;40978;52.850;6.506;2022-07-29T09:34:05;17.80;99.90
55083;DHT22;40978;52.850;6.506;2022-07-29T09:36:31;17.90;99.90
55083;DHT22;40978;52.850;6.506;2022-07-29T09:39:03;17.90;99.90
55083;DHT22;40978;52.850;6.506;2022-07-29T09:41:29;18.00;99.90
55083;DHT22;40978;52.850;6.506;2022-07-29T09:43:59;18.00;99.90
55083;DHT22;40978;52.850;6.506;2022-07-29T09:46:25;18.00;99.90
55083;DHT22;40978;52.850;6.506;2022-07-29T09:49:08;17.90;99.90
55083;DHT22;40978;52.850;6.506;2022-07-29T09:51:36;17.90;99.90
55083;DHT22;40978;52.850;6.506;2022-07-29T09:54:24;17.80;99.90
55083;DHT22;40978;52.850;6.506;2022-07-29T09:56:52;18.00;99.90
55083;DHT22;40978;52.850;6.506;2022-07-29T09:59:18;17.90;99.90
55083;DHT22;40978;52.850;6.506;2022-07-29T10:01:46;17.90;99.90
55083;DHT22;40978;52.850;6.506;2022-07-29T10:04:12;18.00;99.90
55083;DHT22;40978;52.850;6.506;2022-07-29T10:06:58;17.90;99.90
55083;DHT22;40978;52.850;6.506;2022-07-29T10:09:25;18.00;99.90
55083;DHT22;40978;52.850;6.506;2022-07-29T10:12:04;18.10;99.90
55083;DHT22;40978;52.850;6.506;2022-07-29T10:14:34;18.20;99.90
55083;DHT22;40978;52.850;6.506;2022-07-29T10:17:00;18.30;99.90
55083;DHT22;40978;52.850;6.506;2022-07-29T10:19:29;18.30;99.90
55083;DHT22;40978;52.850;6.506;2022-07-29T10:22:00;18.60;99.90
55083;DHT22;40978;52.850;6.506;2022-07-29T10:24:27;18.60;99.90
55083;DHT22;40978;52.850;6.506;2022-07-29T10:26:57;18.70;99.90
55083;DHT22;40978;52.850;6.506;2022-07-29T10:29:24;18.80;99.90
55083;DHT22;40978;52.850;6.506;2022-07-29T10:43:46;20.10;99.90
55083;DHT22;40978;52.850;6.506;2022-07-29T10:46:12;20.50;99.30
55083;DHT22;40978;52.850;6.506;2022-07-29T10:57:15;21.60;94.40
55083;DHT22;40978;52.850;6.506;2022-07-29T10:59:46;21.50;95.00
55083;DHT22;40978;52.850;6.506;2022-07-29T11:07:22;21.30;94.80
55083;DHT22;40978;52.850;6.506;2022-07-29T11:15:05;22.60;92.20
55083;DHT22;40978;52.850;6.506;2022-07-29T11:20:42;23.20;84.30
55083;DHT22;40978;52.850;6.506;2022-07-29T11:28:48;24.30;84.80
55083;DHT22;40978;52.850;6.506;2022-07-29T11:31:16;24.40;85.10
55083;DHT22;40978;52.850;6.506;2022-07-29T11:33:42;24.40;82.30
55083;DHT22;40978;52.850;6.506;2022-07-29T11:36:09;24.20;80.40
55083;DHT22;40978;52.850;6.506;2022-07-29T11:38:36;24.10;80.50
55083;DHT22;40978;52.850;6.506;2022-07-29T11:43:56;23.70;80.20
55083;DHT22;40978;52.850;6.506;2022-07-29T11:46:50;23.30;81.20
55083;DHT22;40978;52.850;6.506;2022-07-29T11:49:24;23.10;80.60
55083;DHT22;40978;52.850;6.506;2022-07-29T11:51:55;22.90;81.30
55083;DHT22;40978;52.850;6.506;2022-07-29T11:54:26;22.60;83.80
55083;DHT22;40978;52.850;6.506;2022-07-29T11:56:52;22.60;84.10
55083;DHT22;40978;52.850;6.506;2022-07-29T11:59:19;22.80;84.10
55083;DHT22;40978;52.850;6.506;2022-07-29T12:01:56;23.40;85.90
55083;DHT22;40978;52.850;6.506;2022-07-29T12:04:22;24.20;82.00
55083;DHT22;40978;52.850;6.506;2022-07-29T12:06:53;24.60;80.20
55083;DHT22;40978;52.850;6.506;2022-07-29T12:09:20;24.60;77.80
55083;DHT22;40978;52.850;6.506;2022-07-29T12:11:47;24.50;79.70
55083;DHT22;40978;52.850;6.506;2022-07-29T12:14:28;24.20;78.80
55083;DHT22;40978;52.850;6.506;2022-07-29T12:16:54;23.90;78.50
55083;DHT22;40978;52.850;6.506;2022-07-29T12:19:20;23.60;79.20
55083;DHT22;40978;52.850;6.506;2022-07-29T12:21:51;23.60;79.20
55083;DHT22;40978;52.850;6.506;2022-07-29T12:24:18;24.00;82.00
55083;DHT22;40978;52.850;6.506;2022-07-29T12:26:52;24.60;80.70
55083;DHT22;40978;52.850;6.506;2022-07-29T12:29:18;25.10;73.60
55083;DHT22;40978;52.850;6.506;2022-07-29T12:31:44;25.30;73.10
55083;DHT22;40978;52.850;6.506;2022-07-29T12:34:13;25.60;72.40
55083;DHT22;40978;52.850;6.506;2022-07-29T12:36:40;25.80;70.20
55083;DHT22;40978;52.850;6.506;2022-07-29T12:39:07;25.90;72.10
55083;DHT22;40978;52.850;6.506;2022-07-29T12:41:34;25.90;69.70
55083;DHT22;40978;52.850;6.506;2022-07-29T12:44:00;25.60;71.00
55083;DHT22;40978;52.850;6.506;2022-07-29T12:46:26;25.50;70.80
55083;DHT22;40978;52.850;6.506;2022-07-29T12:48:53;25.30;70.60
55083;DHT22;40978;52.850;6.506;2022-07-29T12:51:32;25.10;70.70
55083;DHT22;40978;52.850;6.506;2022-07-29T12:54:08;24.80;69.80
55083;DHT22;40978;52.850;6.506;2022-07-29T12:56:39;24.40;68.10
55083;DHT22;40978;52.850;6.506;2022-07-29T12:59:19;24.30;70.20
55083;DHT22;40978;52.850;6.506;2022-07-29T13:01:47;24.20;70.70
55083;DHT22;40978;52.850;6.506;2022-07-29T13:04:27;24.10;71.70
55083;DHT22;40978;52.850;6.506;2022-07-29T13:07:07;24.30;71.60
55083;DHT22;40978;52.850;6.506;2022-07-29T13:09:41;24.40;71.70
55083;DHT22;40978;52.850;6.506;2022-07-29T13:12:09;24.70;71.90
55083;DHT22;40978;52.850;6.506;2022-07-29T13:14:46;24.80;71.90
55083;DHT22;40978;52.850;6.506;2022-07-29T13:17:19;24.90;70.20
55083;DHT22;40978;52.850;6.506;2022-07-29T13:20:05;24.80;71.30
55083;DHT22;40978;52.850;6.506;2022-07-29T13:22:31;24.70;70.70
55083;DHT22;40978;52.850;6.506;2022-07-29T13:24:59;24.50;72.20
55083;DHT22;40978;52.850;6.506;2022-07-29T13:27:29;24.40;72.10
55083;DHT22;40978;52.850;6.506;2022-07-29T13:29:56;24.20;72.30
55083;DHT22;40978;52.850;6.506;2022-07-29T13:32:24;24.20;72.30
55083;DHT22;40978;52.850;6.506;2022-07-29T13:34:51;24.20;73.30
55083;DHT22;40978;52.850;6.506;2022-07-29T13:37:17;24.30;74.50
55083;DHT22;40978;52.850;6.506;2022-07-29T13:39:42;24.40;74.40
55083;DHT22;40978;52.850;6.506;2022-07-29T13:42:08;24.60;74.50
55083;DHT22;40978;52.850;6.506;2022-07-29T13:44:35;24.70;73.30
55083;DHT22;40978;52.850;6.506;2022-07-29T13:47:01;24.90;73.10
55083;DHT22;40978;52.850;6.506;2022-07-29T13:49:27;25.00;72.90
55083;DHT22;40978;52.850;6.506;2022-07-29T13:51:53;25.00;71.90
55083;DHT22;40978;52.850;6.506;2022-07-29T13:54:19;25.00;69.50
55083;DHT22;40978;52.850;6.506;2022-07-29T13:56:45;25.10;67.60
55083;DHT22;40978;52.850;6.506;2022-07-29T13:59:11;25.00;64.80
55083;DHT22;40978;52.850;6.506;2022-07-29T14:01:37;25.10;65.40
55083;DHT22;40978;52.850;6.506;2022-07-29T14:04:04;25.30;66.90
55083;DHT22;40978;52.850;6.506;2022-07-29T14:06:30;25.50;64.50
55083;DHT22;40978;52.850;6.506;2022-07-29T14:08:56;25.60;64.80
55083;DHT22;40978;52.850;6.506;2022-07-29T14:11:22;25.70;64.10
55083;DHT22;40978;52.850;6.506;2022-07-29T14:13:48;25.50;63.50
55083;DHT22;40978;52.850;6.506;2022-07-29T14:16:13;25.50;63.30
55083;DHT22;40978;52.850;6.506;2022-07-29T14:18:39;25.30;63.60
55083;DHT22;40978;52.850;6.506;2022-07-29T14:21:05;25.20;64.30
55083;DHT22;40978;52.850;6.506;2022-07-29T14:23:30;25.00;64.90
55083;DHT22;40978;52.850;6.506;2022-07-29T14:25:56;24.90;65.10
55083;DHT22;40978;52.850;6.506;2022-07-29T14:28:22;24.70;64.90
55083;DHT22;40978;52.850;6.506;2022-07-29T14:30:48;24.60;65.30
55083;DHT22;40978;52.850;6.506;2022-07-29T14:33:13;24.60;66.00
55083;DHT22;40978;52.850;6.506;2022-07-29T14:35:39;24.50;65.20
55083;DHT22;40978;52.850;6.506;2022-07-29T14:38:05;24.40;66.00
55083;DHT22;40978;52.850;6.506;2022-07-29T14:40:30;24.40;65.80
55083;DHT22;40978;52.850;6.506;2022-07-29T14:42:56;24.40;66.80
55083;DHT22;40978;52.850;6.506;2022-07-29T14:45:22;24.40;66.40
55083;DHT22;40978;52.850;6.506;2022-07-29T14:47:48;24.40;66.00
55083;DHT22;40978;52.850;6.506;2022-07-29T14:50:15;24.30;67.10
55083;DHT22;40978;52.850;6.506;2022-07-29T14:52:41;24.20;68.20
55083;DHT22;40978;52.850;6.506;2022-07-29T14:55:07;24.20;68.20
55083;DHT22;40978;52.850;6.506;2022-07-29T14:57:33;24.20;67.20
55083;DHT22;40978;52.850;6.506;2022-07-29T14:59:59;24.20;68.10
55083;DHT22;40978;52.850;6.506;2022-07-29T15:02:24;24.20;67.60
55083;DHT22;40978;52.850;6.506;2022-07-29T15:04:50;24.30;67.60
55083;DHT22;40978;52.850;6.506;2022-07-29T15:07:16;24.40;66.80
55083;DHT22;40978;52.850;6.506;2022-07-29T15:09:42;24.40;66.80
55083;DHT22;40978;52.850;6.506;2022-07-29T15:12:10;24.50;68.30
55083;DHT22;40978;52.850;6.506;2022-07-29T15:14:36;24.50;67.70
55083;DHT22;40978;52.850;6.506;2022-07-29T15:17:02;24.50;67.50
55083;DHT22;40978;52.850;6.506;2022-07-29T15:19:27;24.60;68.30
55083;DHT22;40978;52.850;6.506;2022-07-29T15:21:53;24.60;66.50
55083;DHT22;40978;52.850;6.506;2022-07-29T15:24:19;24.50;65.70
55083;DHT22;40978;52.850;6.506;2022-07-29T15:26:46;24.50;66.10
55083;DHT22;40978;52.850;6.506;2022-07-29T15:29:12;24.50;66.80
55083;DHT22;40978;52.850;6.506;2022-07-29T15:31:37;24.50;66.30
55083;DHT22;40978;52.850;6.506;2022-07-29T15:34:03;24.50;65.70
55083;DHT22;40978;52.850;6.506;2022-07-29T15:36:30;24.50;65.80
55083;DHT22;40978;52.850;6.506;2022-07-29T15:38:56;24.50;65.60
55083;DHT22;40978;52.850;6.506;2022-07-29T15:41:22;24.40;64.90
55083;DHT22;40978;52.850;6.506;2022-07-29T15:43:47;24.40;65.70
55083;DHT22;40978;52.850;6.506;2022-07-29T15:46:15;24.40;66.80
55083;DHT22;40978;52.850;6.506;2022-07-29T15:49:00;24.40;65.10
55083;DHT22;40978;52.850;6.506;2022-07-29T15:51:26;24.40;63.80
55083;DHT22;40978;52.850;6.506;2022-07-29T15:53:52;24.30;63.80
55083;DHT22;40978;52.850;6.506;2022-07-29T15:56:18;24.30;63.90
55083;DHT22;40978;52.850;6.506;2022-07-29T15:58:44;24.30;63.70
55083;DHT22;40978;52.850;6.506;2022-07-29T16:01:10;24.20;64.70
55083;DHT22;40978;52.850;6.506;2022-07-29T16:03:36;24.30;64.80
55083;DHT22;40978;52.850;6.506;2022-07-29T16:06:02;24.30;64.70
55083;DHT22;40978;52.850;6.506;2022-07-29T16:08:27;24.20;63.30
55083;DHT22;40978;52.850;6.506;2022-07-29T16:10:53;24.20;64.70
55083;DHT22;40978;52.850;6.506;2022-07-29T16:13:19;24.20;63.60
55083;DHT22;40978;52.850;6.506;2022-07-29T16:15:45;24.20;63.10
55083;DHT22;40978;52.850;6.506;2022-07-29T16:18:10;24.20;64.00
55083;DHT22;40978;52.850;6.506;2022-07-29T16:20:38;24.10;64.20
55083;DHT22;40978;52.850;6.506;2022-07-29T16:23:04;24.10;64.50
55083;DHT22;40978;52.850;6.506;2022-07-29T16:25:30;24.10;65.20
55083;DHT22;40978;52.850;6.506;2022-07-29T16:27:56;24.00;64.80